Terminal Aerodrome Forecast
Issued by NWS

Home | Current Version | Previous Version | Text Only | Print | Product List | Glossary On
Versions: 1 2 3 4 5 6 7 8 9 10 11 12 13 14 15
000
FTUS45 KRIW 231126
TAFCOD
TAF
KCOD 231126Z 2312/2412 01015G25KT 6SM -SN OVC008
     FM231500 01018G28KT 1 1/2SM -SN BLSN OVC007
     FM240100 34007KT 3SM -SN OVC015
     FM240700 VRB05KT P6SM VCSH OVC025
      AMD LTD TO CLD VIS AND WIND=

USA.gov is the U.S. government's official web portal to all federal, state and local government web resources and services.